sensor_id;sensor_type;location;lat;lon;timestamp;temperature;humidity
23497;DHT22;11925;48.122;11.560;2023-12-29T00:00:23;11.10;91.80
23497;DHT22;11925;48.122;11.560;2023-12-29T00:02:51;11.10;91.90
23497;DHT22;11925;48.122;11.560;2023-12-29T00:05:20;11.10;91.90
23497;DHT22;11925;48.122;11.560;2023-12-29T00:07:48;11.10;92.00
23497;DHT22;11925;48.122;11.560;2023-12-29T00:10:18;11.10;92.10
23497;DHT22;11925;48.122;11.560;2023-12-29T00:12:47;11.10;92.10
23497;DHT22;11925;48.122;11.560;2023-12-29T00:15:17;11.10;92.20
23497;DHT22;11925;48.122;11.560;2023-12-29T00:17:46;11.00;92.40
23497;DHT22;11925;48.122;11.560;2023-12-29T00:20:15;11.00;92.50
23497;DHT22;11925;48.122;11.560;2023-12-29T00:23:03;11.00;92.60
23497;DHT22;11925;48.122;11.560;2023-12-29T00:25:35;11.00;92.60
23497;DHT22;11925;48.122;11.560;2023-12-29T10:34:27;11.40;94.60
23497;DHT22;11925;48.122;11.560;2023-12-29T10:36:57;11.40;95.00
23497;DHT22;11925;48.122;11.560;2023-12-29T10:39:26;11.40;95.40
23497;DHT22;11925;48.122;11.560;2023-12-29T10:42:05;11.40;95.40
23497;DHT22;11925;48.122;11.560;2023-12-29T10:44:34;11.40;95.50
23497;DHT22;11925;48.122;11.560;2023-12-29T10:47:10;11.40;95.70
23497;DHT22;11925;48.122;11.560;2023-12-29T10:49:40;11.40;95.70
23497;DHT22;11925;48.122;11.560;2023-12-29T10:52:13;11.40;95.80
23497;DHT22;11925;48.122;11.560;2023-12-29T10:54:42;11.40;95.90
23497;DHT22;11925;48.122;11.560;2023-12-29T10:57:13;11.40;96.10
23497;DHT22;11925;48.122;11.560;2023-12-29T10:59:41;11.40;96.10
23497;DHT22;11925;48.122;11.560;2023-12-29T11:02:12;11.40;96.20
23497;DHT22;11925;48.122;11.560;2023-12-29T11:04:43;11.40;96.10
23497;DHT22;11925;48.122;11.560;2023-12-29T11:07:12;11.40;96.10
23497;DHT22;11925;48.122;11.560;2023-12-29T11:09:40;11.40;96.10
23497;DHT22;11925;48.122;11.560;2023-12-29T11:12:10;11.40;96.10
23497;DHT22;11925;48.122;11.560;2023-12-29T11:14:42;11.40;96.20
23497;DHT22;11925;48.122;11.560;2023-12-29T11:17:16;11.50;96.10
23497;DHT22;11925;48.122;11.560;2023-12-29T11:19:46;11.40;96.20
23497;DHT22;11925;48.122;11.560;2023-12-29T11:22:16;11.40;96.10
23497;DHT22;11925;48.122;11.560;2023-12-29T11:24:46;11.40;96.20
23497;DHT22;11925;48.122;11.560;2023-12-29T11:27:16;11.40;96.30
23497;DHT22;11925;48.122;11.560;2023-12-29T11:29:47;11.40;96.30
23497;DHT22;11925;48.122;11.560;2023-12-29T11:32:18;11.40;96.20
23497;DHT22;11925;48.122;11.560;2023-12-29T11:34:53;11.40;96.30
23497;DHT22;11925;48.122;11.560;2023-12-29T11:37:32;11.40;96.20
23497;DHT22;11925;48.122;11.560;2023-12-29T11:40:11;11.40;96.60
23497;DHT22;11925;48.122;11.560;2023-12-29T11:42:45;11.40;96.40
23497;DHT22;11925;48.122;11.560;2023-12-29T11:45:28;11.40;96.50
23497;DHT22;11925;48.122;11.560;2023-12-29T11:47:57;11.50;96.50
23497;DHT22;11925;48.122;11.560;2023-12-29T11:50:31;11.50;96.50
23497;DHT22;11925;48.122;11.560;2023-12-29T11:53:00;11.40;96.50
23497;DHT22;11925;48.122;11.560;2023-12-29T11:55:31;11.50;96.50
23497;DHT22;11925;48.122;11.560;2023-12-29T11:57:59;11.50;96.50
23497;DHT22;11925;48.122;11.560;2023-12-29T12:00:46;11.40;96.50
23497;DHT22;11925;48.122;11.560;2023-12-29T12:03:23;11.50;96.50
23497;DHT22;11925;48.122;11.560;2023-12-29T12:05:54;11.50;96.60
23497;DHT22;11925;48.122;11.560;2023-12-29T12:08:29;11.50;96.60
23497;DHT22;11925;48.122;11.560;2023-12-29T12:14:05;11.50;96.30
23497;DHT22;11925;48.122;11.560;2023-12-29T12:16:51;11.50;96.50
23497;DHT22;11925;48.122;11.560;2023-12-29T12:19:21;11.50;96.50
23497;DHT22;11925;48.122;11.560;2023-12-29T12:21:53;11.50;96.50
23497;DHT22;11925;48.122;11.560;2023-12-29T12:24:22;11.50;96.50
23497;DHT22;11925;48.122;11.560;2023-12-29T12:26:54;11.50;96.60
23497;DHT22;11925;48.122;11.560;2023-12-29T12:29:22;11.50;96.50
23497;DHT22;11925;48.122;11.560;2023-12-29T12:31:54;11.50;96.50
23497;DHT22;11925;48.122;11.560;2023-12-29T12:34:23;11.50;96.50
23497;DHT22;11925;48.122;11.560;2023-12-29T12:36:53;11.50;96.50
23497;DHT22;11925;48.122;11.560;2023-12-29T12:39:23;11.50;96.40
23497;DHT22;11925;48.122;11.560;2023-12-29T12:41:52;11.60;96.30
23497;DHT22;11925;48.122;11.560;2023-12-29T12:44:20;11.60;96.40
23497;DHT22;11925;48.122;11.560;2023-12-29T12:46:59;11.60;96.40
23497;DHT22;11925;48.122;11.560;2023-12-29T12:49:29;11.60;96.50
23497;DHT22;11925;48.122;11.560;2023-12-29T12:51:58;11.60;96.50
23497;DHT22;11925;48.122;11.560;2023-12-29T12:54:26;11.60;96.40
23497;DHT22;11925;48.122;11.560;2023-12-29T12:56:55;11.60;96.30
23497;DHT22;11925;48.122;11.560;2023-12-29T12:59:24;11.60;96.40
23497;DHT22;11925;48.122;11.560;2023-12-29T13:01:53;11.60;96.30
23497;DHT22;11925;48.122;11.560;2023-12-29T13:04:23;11.60;96.30
23497;DHT22;11925;48.122;11.560;2023-12-29T13:06:52;11.60;96.30
23497;DHT22;11925;48.122;11.560;2023-12-29T13:09:20;11.60;96.20
23497;DHT22;11925;48.122;11.560;2023-12-29T13:11:49;11.60;96.10
23497;DHT22;11925;48.122;11.560;2023-12-29T13:14:21;11.60;96.00
23497;DHT22;11925;48.122;11.560;2023-12-29T13:16:50;11.60;95.90
23497;DHT22;11925;48.122;11.560;2023-12-29T13:19:20;11.60;95.80
23497;DHT22;11925;48.122;11.560;2023-12-29T13:21:52;11.60;95.80
23497;DHT22;11925;48.122;11.560;2023-12-29T13:24:23;11.60;95.70
23497;DHT22;11925;48.122;11.560;2023-12-29T13:26:57;11.60;95.70
23497;DHT22;11925;48.122;11.560;2023-12-29T13:29:26;11.60;95.60
23497;DHT22;11925;48.122;11.560;2023-12-29T13:31:59;11.60;95.40
23497;DHT22;11925;48.122;11.560;2023-12-29T13:34:33;11.60;95.40
23497;DHT22;11925;48.122;11.560;2023-12-29T13:37:10;11.60;95.40
23497;DHT22;11925;48.122;11.560;2023-12-29T13:39:45;11.60;95.40
23497;DHT22;11925;48.122;11.560;2023-12-29T13:42:19;11.60;95.40
23497;DHT22;11925;48.122;11.560;2023-12-29T13:44:51;11.60;95.40
23497;DHT22;11925;48.122;11.560;2023-12-29T13:47:21;11.60;95.50
23497;DHT22;11925;48.122;11.560;2023-12-29T13:49:50;11.60;95.50
23497;DHT22;11925;48.122;11.560;2023-12-29T13:52:21;11.60;95.50
23497;DHT22;11925;48.122;11.560;2023-12-29T13:54:49;11.60;95.60
23497;DHT22;11925;48.122;11.560;2023-12-29T13:57:18;11.60;95.50
23497;DHT22;11925;48.122;11.560;2023-12-29T13:59:48;11.60;95.50
23497;DHT22;11925;48.122;11.560;2023-12-29T14:02:23;11.60;95.40
23497;DHT22;11925;48.122;11.560;2023-12-29T14:05:15;11.60;95.30
23497;DHT22;11925;48.122;11.560;2023-12-29T14:07:53;11.70;95.30
23497;DHT22;11925;48.122;11.560;2023-12-29T14:10:23;11.70;95.50
23497;DHT22;11925;48.122;11.560;2023-12-29T14:12:52;11.70;95.50
23497;DHT22;11925;48.122;11.560;2023-12-29T14:15:21;11.70;95.10
23497;DHT22;11925;48.122;11.560;2023-12-29T14:17:49;11.70;95.00
23497;DHT22;11925;48.122;11.560;2023-12-29T14:20:32;11.60;94.80
23497;DHT22;11925;48.122;11.560;2023-12-29T14:23:04;11.60;94.70
23497;DHT22;11925;48.122;11.560;2023-12-29T14:25:34;11.60;94.60
23497;DHT22;11925;48.122;11.560;2023-12-29T14:28:14;11.60;94.60
23497;DHT22;11925;48.122;11.560;2023-12-29T14:30:43;11.70;94.80
23497;DHT22;11925;48.122;11.560;2023-12-29T14:33:12;11.70;94.70
23497;DHT22;11925;48.122;11.560;2023-12-29T14:35:41;11.70;94.60
23497;DHT22;11925;48.122;11.560;2023-12-29T14:38:11;11.60;94.50
23497;DHT22;11925;48.122;11.560;2023-12-29T14:40:45;11.70;94.60
23497;DHT22;11925;48.122;11.560;2023-12-29T14:43:13;11.60;94.60
23497;DHT22;11925;48.122;11.560;2023-12-29T14:45:42;11.60;94.60
23497;DHT22;11925;48.122;11.560;2023-12-29T14:48:10;11.60;94.60
23497;DHT22;11925;48.122;11.560;2023-12-29T14:50:39;11.60;94.70
23497;DHT22;11925;48.122;11.560;2023-12-29T14:53:14;11.70;94.80
23497;DHT22;11925;48.122;11.560;2023-12-29T14:55:42;11.60;94.80
23497;DHT22;11925;48.122;11.560;2023-12-29T14:58:12;11.60;94.80
23497;DHT22;11925;48.122;11.560;2023-12-29T15:00:43;11.60;94.80
23497;DHT22;11925;48.122;11.560;2023-12-29T15:03:14;11.60;94.90
23497;DHT22;11925;48.122;11.560;2023-12-29T15:05:43;11.60;94.80
23497;DHT22;11925;48.122;11.560;2023-12-29T15:08:14;11.60;94.80
23497;DHT22;11925;48.122;11.560;2023-12-29T15:10:43;11.60;94.80
23497;DHT22;11925;48.122;11.560;2023-12-29T15:13:12;11.60;94.80
23497;DHT22;11925;48.122;11.560;2023-12-29T15:15:40;11.60;94.90
23497;DHT22;11925;48.122;11.560;2023-12-29T15:18:09;11.60;94.90
23497;DHT22;11925;48.122;11.560;2023-12-29T15:20:37;11.60;94.90
23497;DHT22;11925;48.122;11.560;2023-12-29T15:23:06;11.60;94.90
23497;DHT22;11925;48.122;11.560;2023-12-29T15:25:36;11.60;94.80
23497;DHT22;11925;48.122;11.560;2023-12-29T15:28:05;11.60;94.80
23497;DHT22;11925;48.122;11.560;2023-12-29T15:30:33;11.70;95.40
23497;DHT22;11925;48.122;11.560;2023-12-29T15:33:02;11.70;95.20
23497;DHT22;11925;48.122;11.560;2023-12-29T15:35:31;11.70;95.30
23497;DHT22;11925;48.122;11.560;2023-12-29T15:37:59;11.60;95.20
23497;DHT22;11925;48.122;11.560;2023-12-29T15:40:28;11.60;95.00
23497;DHT22;11925;48.122;11.560;2023-12-29T15:42:58;11.60;95.10
23497;DHT22;11925;48.122;11.560;2023-12-29T15:45:27;11.60;95.00
23497;DHT22;11925;48.122;11.560;2023-12-29T15:47:55;11.70;95.30
23497;DHT22;11925;48.122;11.560;2023-12-29T15:50:24;11.60;95.20
23497;DHT22;11925;48.122;11.560;2023-12-29T15:52:53;11.70;95.30
23497;DHT22;11925;48.122;11.560;2023-12-29T15:55:21;11.70;95.30
23497;DHT22;11925;48.122;11.560;2023-12-29T15:57:50;11.60;95.20
23497;DHT22;11925;48.122;11.560;2023-12-29T16:00:20;11.60;95.60
23497;DHT22;11925;48.122;11.560;2023-12-29T16:02:49;11.60;95.20
23497;DHT22;11925;48.122;11.560;2023-12-29T16:05:18;11.60;95.30
23497;DHT22;11925;48.122;11.560;2023-12-29T16:07:46;11.60;95.30
23497;DHT22;11925;48.122;11.560;2023-12-29T16:10:15;11.60;95.30
23497;DHT22;11925;48.122;11.560;2023-12-29T16:12:43;11.70;95.60
23497;DHT22;11925;48.122;11.560;2023-12-29T16:15:12;11.70;95.40
23497;DHT22;11925;48.122;11.560;2023-12-29T16:17:42;11.70;95.30
23497;DHT22;11925;48.122;11.560;2023-12-29T16:20:11;11.70;95.70
23497;DHT22;11925;48.122;11.560;2023-12-29T16:22:40;11.70;95.60
23497;DHT22;11925;48.122;11.560;2023-12-29T16:25:08;11.70;95.30
23497;DHT22;11925;48.122;11.560;2023-12-29T16:27:37;11.70;95.40
23497;DHT22;11925;48.122;11.560;2023-12-29T16:30:07;11.70;95.60
23497;DHT22;11925;48.122;11.560;2023-12-29T16:32:36;11.70;95.60
23497;DHT22;11925;48.122;11.560;2023-12-29T16:35:06;11.70;95.60
23497;DHT22;11925;48.122;11.560;2023-12-29T16:37:37;11.70;95.80
23497;DHT22;11925;48.122;11.560;2023-12-29T16:40:06;11.70;96.00
23497;DHT22;11925;48.122;11.560;2023-12-29T16:42:36;11.80;96.00
23497;DHT22;11925;48.122;11.560;2023-12-29T16:45:06;11.80;96.10
23497;DHT22;11925;48.122;11.560;2023-12-29T16:47:34;11.80;96.10
23497;DHT22;11925;48.122;11.560;2023-12-29T16:50:03;11.80;96.10
23497;DHT22;11925;48.122;11.560;2023-12-29T16:52:34;11.80;96.10
23497;DHT22;11925;48.122;11.560;2023-12-29T16:55:04;11.80;96.10
23497;DHT22;11925;48.122;11.560;2023-12-29T16:57:32;11.70;95.90
23497;DHT22;11925;48.122;11.560;2023-12-29T17:00:01;11.70;95.60
23497;DHT22;11925;48.122;11.560;2023-12-29T17:02:30;11.70;95.40
23497;DHT22;11925;48.122;11.560;2023-12-29T17:04:59;11.70;95.40
23497;DHT22;11925;48.122;11.560;2023-12-29T17:07:27;11.60;95.30
23497;DHT22;11925;48.122;11.560;2023-12-29T17:09:57;11.60;95.20
23497;DHT22;11925;48.122;11.560;2023-12-29T17:12:26;11.60;95.10
23497;DHT22;11925;48.122;11.560;2023-12-29T17:14:54;11.60;95.10
23497;DHT22;11925;48.122;11.560;2023-12-29T17:17:22;11.50;95.00
23497;DHT22;11925;48.122;11.560;2023-12-29T17:19:51;11.50;95.10
23497;DHT22;11925;48.122;11.560;2023-12-29T17:22:21;11.50;95.10
23497;DHT22;11925;48.122;11.560;2023-12-29T17:24:49;11.50;95.10
23497;DHT22;11925;48.122;11.560;2023-12-29T17:27:19;11.50;95.00
23497;DHT22;11925;48.122;11.560;2023-12-29T17:29:48;11.50;95.00
23497;DHT22;11925;48.122;11.560;2023-12-29T17:32:16;11.50;95.10
23497;DHT22;11925;48.122;11.560;2023-12-29T17:34:45;11.50;95.00
23497;DHT22;11925;48.122;11.560;2023-12-29T17:37:14;11.50;95.00
23497;DHT22;11925;48.122;11.560;2023-12-29T17:39:42;11.50;95.00
23497;DHT22;11925;48.122;11.560;2023-12-29T17:42:11;11.50;95.00
23497;DHT22;11925;48.122;11.560;2023-12-29T17:44:41;11.50;94.90
23497;DHT22;11925;48.122;11.560;2023-12-29T17:47:10;11.40;94.90
23497;DHT22;11925;48.122;11.560;2023-12-29T17:49:40;11.40;94.90
23497;DHT22;11925;48.122;11.560;2023-12-29T17:52:09;11.40;94.80
23497;DHT22;11925;48.122;11.560;2023-12-29T17:54:37;11.40;94.80
23497;DHT22;11925;48.122;11.560;2023-12-29T17:57:07;11.40;94.90
23497;DHT22;11925;48.122;11.560;2023-12-29T17:59:35;11.40;94.90
23497;DHT22;11925;48.122;11.560;2023-12-29T18:02:05;11.40;94.90
23497;DHT22;11925;48.122;11.560;2023-12-29T18:04:34;11.40;94.90
23497;DHT22;11925;48.122;11.560;2023-12-29T18:07:03;11.40;94.90
23497;DHT22;11925;48.122;11.560;2023-12-29T18:09:37;11.30;94.80
23497;DHT22;11925;48.122;11.560;2023-12-29T18:12:06;11.30;94.90
23497;DHT22;11925;48.122;11.560;2023-12-29T18:14:39;11.30;94.90
23497;DHT22;11925;48.122;11.560;2023-12-29T18:17:09;11.30;95.00
23497;DHT22;11925;48.122;11.560;2023-12-29T18:19:40;11.30;94.90
23497;DHT22;11925;48.122;11.560;2023-12-29T18:22:09;11.30;94.90
23497;DHT22;11925;48.122;11.560;2023-12-29T18:24:44;11.30;94.90
23497;DHT22;11925;48.122;11.560;2023-12-29T18:27:12;11.30;95.00
23497;DHT22;11925;48.122;11.560;2023-12-29T18:29:44;11.30;95.10
23497;DHT22;11925;48.122;11.560;2023-12-29T18:32:13;11.30;95.10
23497;DHT22;11925;48.122;11.560;2023-12-29T18:34:48;11.30;95.00
23497;DHT22;11925;48.122;11.560;2023-12-29T18:37:17;11.30;95.10
23497;DHT22;11925;48.122;11.560;2023-12-29T18:39:46;11.30;95.00
23497;DHT22;11925;48.122;11.560;2023-12-29T18:42:16;11.30;95.00
23497;DHT22;11925;48.122;11.560;2023-12-29T18:44:45;11.30;95.00
23497;DHT22;11925;48.122;11.560;2023-12-29T18:47:15;11.30;95.00
23497;DHT22;11925;48.122;11.560;2023-12-29T18:49:44;11.30;95.00
23497;DHT22;11925;48.122;11.560;2023-12-29T18:52:12;11.30;95.00
23497;DHT22;11925;48.122;11.560;2023-12-29T18:54:41;11.30;95.00
23497;DHT22;11925;48.122;11.560;2023-12-29T18:57:12;11.20;95.00
23497;DHT22;11925;48.122;11.560;2023-12-29T18:59:42;11.20;95.10
23497;DHT22;11925;48.122;11.560;2023-12-29T19:02:14;11.20;95.10
23497;DHT22;11925;48.122;11.560;2023-12-29T19:04:44;11.20;95.10
23497;DHT22;11925;48.122;11.560;2023-12-29T19:07:14;11.20;95.10
23497;DHT22;11925;48.122;11.560;2023-12-29T19:09:49;11.20;95.10
23497;DHT22;11925;48.122;11.560;2023-12-29T19:12:18;11.20;95.10
23497;DHT22;11925;48.122;11.560;2023-12-29T19:14:46;11.20;95.10
23497;DHT22;11925;48.122;11.560;2023-12-29T19:17:22;11.20;95.10
23497;DHT22;11925;48.122;11.560;2023-12-29T19:19:52;11.20;95.10
23497;DHT22;11925;48.122;11.560;2023-12-29T19:22:21;11.20;95.10
23497;DHT22;11925;48.122;11.560;2023-12-29T19:24:50;11.10;95.10
23497;DHT22;11925;48.122;11.560;2023-12-29T19:27:20;11.20;95.10
23497;DHT22;11925;48.122;11.560;2023-12-29T19:29:48;11.20;95.00
23497;DHT22;11925;48.122;11.560;2023-12-29T19:32:17;11.20;94.90
23497;DHT22;11925;48.122;11.560;2023-12-29T19:34:47;11.20;94.80
23497;DHT22;11925;48.122;11.560;2023-12-29T19:37:16;11.20;94.70
23497;DHT22;11925;48.122;11.560;2023-12-29T19:39:45;11.30;94.50
23497;DHT22;11925;48.122;11.560;2023-12-29T19:42:13;11.30;94.40
23497;DHT22;11925;48.122;11.560;2023-12-29T19:44:42;11.30;94.30
23497;DHT22;11925;48.122;11.560;2023-12-29T19:47:10;11.30;94.10
23497;DHT22;11925;48.122;11.560;2023-12-29T19:49:41;11.30;94.00
23497;DHT22;11925;48.122;11.560;2023-12-29T19:52:10;11.30;94.00
23497;DHT22;11925;48.122;11.560;2023-12-29T19:54:39;11.30;93.90
23497;DHT22;11925;48.122;11.560;2023-12-29T19:57:07;11.40;94.00
23497;DHT22;11925;48.122;11.560;2023-12-29T19:59:36;11.30;93.90
23497;DHT22;11925;48.122;11.560;2023-12-29T20:02:05;11.30;94.00
23497;DHT22;11925;48.122;11.560;2023-12-29T20:04:34;11.40;94.00
23497;DHT22;11925;48.122;11.560;2023-12-29T20:07:02;11.40;94.10
23497;DHT22;11925;48.122;11.560;2023-12-29T20:09:33;11.40;94.10
23497;DHT22;11925;48.122;11.560;2023-12-29T20:12:01;11.40;94.20
23497;DHT22;11925;48.122;11.560;2023-12-29T20:14:30;11.40;94.40
23497;DHT22;11925;48.122;11.560;2023-12-29T20:16:58;11.40;94.40
23497;DHT22;11925;48.122;11.560;2023-12-29T20:19:27;11.40;94.50
23497;DHT22;11925;48.122;11.560;2023-12-29T20:21:55;11.40;94.70
23497;DHT22;11925;48.122;11.560;2023-12-29T20:24:24;11.40;94.80
23497;DHT22;11925;48.122;11.560;2023-12-29T20:26:54;11.40;94.90
23497;DHT22;11925;48.122;11.560;2023-12-29T20:29:22;11.50;95.00
23497;DHT22;11925;48.122;11.560;2023-12-29T20:31:52;11.40;95.10
23497;DHT22;11925;48.122;11.560;2023-12-29T20:34:22;11.50;95.30
23497;DHT22;11925;48.122;11.560;2023-12-29T20:36:51;11.50;95.30
23497;DHT22;11925;48.122;11.560;2023-12-29T20:39:19;11.50;95.30
23497;DHT22;11925;48.122;11.560;2023-12-29T20:41:48;11.50;95.40
23497;DHT22;11925;48.122;11.560;2023-12-29T20:44:18;11.50;95.50
23497;DHT22;11925;48.122;11.560;2023-12-29T20:46:47;11.50;95.50
23497;DHT22;11925;48.122;11.560;2023-12-29T20:49:16;11.50;95.70
23497;DHT22;11925;48.122;11.560;2023-12-29T20:51:44;11.50;95.70
23497;DHT22;11925;48.122;11.560;2023-12-29T20:54:13;11.50;95.70
23497;DHT22;11925;48.122;11.560;2023-12-29T20:56:42;11.50;95.80
23497;DHT22;11925;48.122;11.560;2023-12-29T20:59:11;11.50;95.80
23497;DHT22;11925;48.122;11.560;2023-12-29T21:01:41;11.40;95.80
23497;DHT22;11925;48.122;11.560;2023-12-29T21:04:10;11.40;95.70
23497;DHT22;11925;48.122;11.560;2023-12-29T21:06:38;11.40;95.70
23497;DHT22;11925;48.122;11.560;2023-12-29T21:09:07;11.40;95.70
23497;DHT22;11925;48.122;11.560;2023-12-29T21:11:37;11.40;95.70
23497;DHT22;11925;48.122;11.560;2023-12-29T21:14:06;11.50;95.70
23497;DHT22;11925;48.122;11.560;2023-12-29T21:16:34;11.50;95.70
23497;DHT22;11925;48.122;11.560;2023-12-29T21:19:04;11.50;95.70
23497;DHT22;11925;48.122;11.560;2023-12-29T21:21:36;11.50;95.60
23497;DHT22;11925;48.122;11.560;2023-12-29T21:24:06;11.40;95.60
23497;DHT22;11925;48.122;11.560;2023-12-29T21:26:35;11.40;95.70
23497;DHT22;11925;48.122;11.560;2023-12-29T21:29:03;11.40;95.70
23497;DHT22;11925;48.122;11.560;2023-12-29T21:31:32;11.40;95.70
23497;DHT22;11925;48.122;11.560;2023-12-29T21:34:01;11.50;95.80
23497;DHT22;11925;48.122;11.560;2023-12-29T21:36:31;11.50;95.80
23497;DHT22;11925;48.122;11.560;2023-12-29T21:39:00;11.50;95.80
23497;DHT22;11925;48.122;11.560;2023-12-29T21:41:28;11.50;95.90
23497;DHT22;11925;48.122;11.560;2023-12-29T21:43:58;11.50;95.90
23497;DHT22;11925;48.122;11.560;2023-12-29T21:46:26;11.50;96.00
23497;DHT22;11925;48.122;11.560;2023-12-29T21:48:54;11.50;96.10
23497;DHT22;11925;48.122;11.560;2023-12-29T21:51:23;11.50;96.20
23497;DHT22;11925;48.122;11.560;2023-12-29T21:53:53;11.50;96.20
23497;DHT22;11925;48.122;11.560;2023-12-29T21:56:22;11.50;96.20
23497;DHT22;11925;48.122;11.560;2023-12-29T21:58:50;11.50;96.30
23497;DHT22;11925;48.122;11.560;2023-12-29T22:01:30;11.50;96.30
23497;DHT22;11925;48.122;11.560;2023-12-29T22:04:02;11.50;96.30
23497;DHT22;11925;48.122;11.560;2023-12-29T22:06:32;11.50;96.30
23497;DHT22;11925;48.122;11.560;2023-12-29T22:09:02;11.50;96.30
23497;DHT22;11925;48.122;11.560;2023-12-29T22:11:32;11.50;96.40
23497;DHT22;11925;48.122;11.560;2023-12-29T22:14:00;11.50;96.40
23497;DHT22;11925;48.122;11.560;2023-12-29T22:16:29;11.50;96.50
23497;DHT22;11925;48.122;11.560;2023-12-29T22:18:57;11.50;96.50
23497;DHT22;11925;48.122;11.560;2023-12-29T22:21:26;11.50;96.50
23497;DHT22;11925;48.122;11.560;2023-12-29T22:23:55;11.50;96.50
23497;DHT22;11925;48.122;11.560;2023-12-29T22:26:25;11.50;96.50
23497;DHT22;11925;48.122;11.560;2023-12-29T22:28:53;11.50;96.50
23497;DHT22;11925;48.122;11.560;2023-12-29T22:31:22;11.50;96.50
23497;DHT22;11925;48.122;11.560;2023-12-29T22:33:50;11.50;96.60
23497;DHT22;11925;48.122;11.560;2023-12-29T22:36:21;11.50;96.50
23497;DHT22;11925;48.122;11.560;2023-12-29T22:38:49;11.50;96.60
23497;DHT22;11925;48.122;11.560;2023-12-29T22:41:19;11.50;96.60
23497;DHT22;11925;48.122;11.560;2023-12-29T22:43:49;11.50;96.50
23497;DHT22;11925;48.122;11.560;2023-12-29T22:46:18;11.50;96.60
23497;DHT22;11925;48.122;11.560;2023-12-29T22:48:51;11.50;96.60
23497;DHT22;11925;48.122;11.560;2023-12-29T22:51:21;11.50;96.60
23497;DHT22;11925;48.122;11.560;2023-12-29T22:53:49;11.50;96.60
23497;DHT22;11925;48.122;11.560;2023-12-29T22:56:18;11.40;96.70
23497;DHT22;11925;48.122;11.560;2023-12-29T22:58:50;11.50;96.80
23497;DHT22;11925;48.122;11.560;2023-12-29T23:01:18;11.50;96.80
23497;DHT22;11925;48.122;11.560;2023-12-29T23:03:47;11.50;96.80
23497;DHT22;11925;48.122;11.560;2023-12-29T23:06:16;11.50;96.80
23497;DHT22;11925;48.122;11.560;2023-12-29T23:08:44;11.50;96.80
23497;DHT22;11925;48.122;11.560;2023-12-29T23:11:13;11.50;96.80
23497;DHT22;11925;48.122;11.560;2023-12-29T23:13:41;11.50;96.90
23497;DHT22;11925;48.122;11.560;2023-12-29T23:16:11;11.50;96.80
23497;DHT22;11925;48.122;11.560;2023-12-29T23:18:40;11.50;96.90
23497;DHT22;11925;48.122;11.560;2023-12-29T23:21:11;11.50;97.00
23497;DHT22;11925;48.122;11.560;2023-12-29T23:23:40;11.50;97.00
23497;DHT22;11925;48.122;11.560;2023-12-29T23:26:08;11.50;97.00
23497;DHT22;11925;48.122;11.560;2023-12-29T23:28:37;11.50;96.90
23497;DHT22;11925;48.122;11.560;2023-12-29T23:31:07;11.40;97.10
23497;DHT22;11925;48.122;11.560;2023-12-29T23:33:37;11.40;97.10
23497;DHT22;11925;48.122;11.560;2023-12-29T23:36:07;11.40;97.20
23497;DHT22;11925;48.122;11.560;2023-12-29T23:38:35;11.50;97.20
23497;DHT22;11925;48.122;11.560;2023-12-29T23:41:04;11.50;97.20
23497;DHT22;11925;48.122;11.560;2023-12-29T23:43:32;11.50;97.20
23497;DHT22;11925;48.122;11.560;2023-12-29T23:46:03;11.50;97.30
23497;DHT22;11925;48.122;11.560;2023-12-29T23:48:31;11.40;97.30
23497;DHT22;11925;48.122;11.560;2023-12-29T23:51:01;11.50;97.40
23497;DHT22;11925;48.122;11.560;2023-12-29T23:53:30;11.50;97.30
23497;DHT22;11925;48.122;11.560;2023-12-29T23:55:59;11.40;97.50
23497;DHT22;11925;48.122;11.560;2023-12-29T23:58:27;11.50;97.50
